createdAt,value
2022-08-17T00:02:25.961Z,9.10
2022-08-17T00:04:55.308Z,9.37
2022-08-17T00:07:22.525Z,9.80
2022-08-17T00:09:49.363Z,9.03
2022-08-17T00:12:41.040Z,9.90
2022-08-17T00:15:05.352Z,9.40
2022-08-17T00:17:32.747Z,9.60
2022-08-17T00:20:00.462Z,9.73
2022-08-17T00:22:34.647Z,9.50
2022-08-17T00:25:09.587Z,8.13
2022-08-17T00:27:37.104Z,11.27
2022-08-17T00:30:07.306Z,9.57
2022-08-17T00:33:15.279Z,9.03
2022-08-17T00:35:30.358Z,8.60
2022-08-17T00:37:57.354Z,9.97
2022-08-17T00:40:24.831Z,9.77
2022-08-17T00:42:53.381Z,9.50
2022-08-17T00:45:20.638Z,9.93
2022-08-17T00:47:47.895Z,10.07
2022-08-17T00:50:17.558Z,10.10
2022-08-17T00:52:52.450Z,10.17
2022-08-17T00:55:20.305Z,9.30
2022-08-17T00:57:55.041Z,9.90
2022-08-17T01:00:29.845Z,9.77
2022-08-17T01:03:03.375Z,9.40
2022-08-17T01:05:33.348Z,9.57
2022-08-17T01:08:01.942Z,9.77
2022-08-17T01:11:01.058Z,9.37
2022-08-17T01:13:41.705Z,10.27
2022-08-17T01:16:23.291Z,10.97
2022-08-17T01:18:54.464Z,9.97
2022-08-17T01:21:24.402Z,10.90
2022-08-17T01:23:51.421Z,10.57
2022-08-17T01:26:19.499Z,11.47
2022-08-17T01:28:54.437Z,11.33
2022-08-17T01:31:24.742Z,9.33
2022-08-17T01:33:52.034Z,10.47
2022-08-17T01:36:18.975Z,10.60
2022-08-17T01:38:45.967Z,9.83
2022-08-17T01:41:16.506Z,10.60
2022-08-17T01:43:52.050Z,10.00
2022-08-17T01:46:27.377Z,10.83
2022-08-17T01:48:56.442Z,10.50
2022-08-17T01:51:26.047Z,10.00
2022-08-17T01:53:57.662Z,10.90
2022-08-17T01:56:26.677Z,11.03
2022-08-17T01:58:56.868Z,11.07
2022-08-17T02:01:27.759Z,10.97
2022-08-17T02:04:00.828Z,11.30
2022-08-17T02:06:45.050Z,11.73
2022-08-17T02:09:23.280Z,10.93
2022-08-17T02:11:54.121Z,10.00
2022-08-17T02:14:21.634Z,10.67
2022-08-17T02:16:48.518Z,10.47
2022-08-17T02:19:16.375Z,12.10
2022-08-17T02:21:47.187Z,10.97
2022-08-17T02:24:58.974Z,10.60
2022-08-17T02:27:07.126Z,12.13
2022-08-17T02:29:34.173Z,11.23
2022-08-17T02:32:02.315Z,10.87
2022-08-17T02:34:30.170Z,11.13
2022-08-17T02:36:57.274Z,12.43
2022-08-17T02:39:24.386Z,10.97
2022-08-17T02:42:01.770Z,11.27
2022-08-17T02:44:39.431Z,12.10
2022-08-17T02:47:09.362Z,12.20
2022-08-17T02:49:36.812Z,12.67
2022-08-17T02:52:07.147Z,12.73
2022-08-17T02:54:39.888Z,12.63
2022-08-17T02:57:10.295Z,12.27
2022-08-17T02:59:38.619Z,12.17
2022-08-17T03:02:08.174Z,12.10
2022-08-17T03:04:35.453Z,14.03
2022-08-17T03:07:03.877Z,14.00
2022-08-17T03:09:31.227Z,14.10
2022-08-17T03:12:10.117Z,13.50
2022-08-17T03:14:41.497Z,15.17
2022-08-17T03:17:10.120Z,14.43
2022-08-17T03:19:42.931Z,14.67
2022-08-17T03:22:19.913Z,13.33
2022-08-17T03:24:58.256Z,12.17
2022-08-17T03:27:25.228Z,15.40
2022-08-17T03:29:52.028Z,13.93
2022-08-17T03:32:20.792Z,13.63
2022-08-17T03:34:48.114Z,14.97
2022-08-17T03:37:16.145Z,15.50
2022-08-17T03:39:43.232Z,16.07
2022-08-17T03:42:31.845Z,14.83
2022-08-17T03:45:00.159Z,16.00
2022-08-17T03:47:45.658Z,14.03
2022-08-17T03:50:33.462Z,13.03
2022-08-17T03:53:23.122Z,14.27
2022-08-17T03:56:08.887Z,14.77
2022-08-17T03:58:37.673Z,13.93
2022-08-17T04:01:08.170Z,15.60
2022-08-17T04:03:35.404Z,16.50
2022-08-17T04:06:02.573Z,14.77
2022-08-17T04:08:32.138Z,17.07
2022-08-17T04:11:01.013Z,16.43
2022-08-17T04:13:28.311Z,15.17
2022-08-17T04:15:57.383Z,19.03
2022-08-17T04:18:25.798Z,17.50
2022-08-17T04:20:52.841Z,18.87
2022-08-17T04:23:19.933Z,16.90
2022-08-17T04:25:50.066Z,17.57
2022-08-17T04:28:19.179Z,16.57
2022-08-17T04:30:47.448Z,16.43
2022-08-17T04:33:24.198Z,17.47
2022-08-17T04:35:58.166Z,16.97
2022-08-17T04:38:28.498Z,18.10
2022-08-17T04:41:15.626Z,18.37
2022-08-17T04:43:44.215Z,17.20
2022-08-17T04:46:14.966Z,17.50
2022-08-17T04:48:46.103Z,16.43
2022-08-17T04:51:14.486Z,17.60
2022-08-17T04:53:44.526Z,18.97
2022-08-17T04:56:17.017Z,17.50
2022-08-17T04:58:49.932Z,17.20
2022-08-17T05:01:23.581Z,17.87
2022-08-17T05:03:53.683Z,16.10
2022-08-17T05:06:21.410Z,16.67
2022-08-17T05:08:48.472Z,17.50
2022-08-17T05:11:15.918Z,17.67
2022-08-17T05:13:42.766Z,19.30
2022-08-17T05:16:09.847Z,18.60
2022-08-17T05:18:40.110Z,16.07
2022-08-17T05:21:07.867Z,16.00
2022-08-17T05:23:42.406Z,14.80
2022-08-17T05:26:25.474Z,15.10
2022-08-17T05:29:00.524Z,16.90
2022-08-17T05:31:30.097Z,16.20
2022-08-17T05:33:57.087Z,15.33
2022-08-17T05:36:41.658Z,16.63
2022-08-17T05:39:15.915Z,17.03
2022-08-17T05:41:43.725Z,16.67
2022-08-17T05:44:11.127Z,16.23
2022-08-17T05:46:41.944Z,17.07
2022-08-17T05:49:12.363Z,14.57
2022-08-17T05:51:48.618Z,16.43
2022-08-17T05:55:04.945Z,17.20
2022-08-17T05:57:56.266Z,16.73
2022-08-17T06:00:32.717Z,16.07
2022-08-17T06:03:18.423Z,18.03
2022-08-17T06:05:58.923Z,15.70
2022-08-17T06:08:44.811Z,16.07
2022-08-17T06:11:29.513Z,16.20
2022-08-17T06:14:02.712Z,16.10
2022-08-17T06:16:39.481Z,16.20
2022-08-17T06:19:16.315Z,17.00
2022-08-17T06:21:47.345Z,13.43
2022-08-17T06:24:27.627Z,14.67
2022-08-17T06:27:01.498Z,12.63
2022-08-17T06:29:58.896Z,15.13
2022-08-17T06:32:26.244Z,14.10
2022-08-17T06:34:53.967Z,13.93
2022-08-17T06:37:42.574Z,14.43
2022-08-17T06:40:27.596Z,13.10
2022-08-17T06:43:27.141Z,14.87
2022-08-17T06:46:16.715Z,15.07
2022-08-17T06:49:10.582Z,14.00
2022-08-17T06:51:46.581Z,12.33
2022-08-17T06:54:45.992Z,12.10
2022-08-17T06:57:23.270Z,12.97
2022-08-17T06:59:56.728Z,13.03
2022-08-17T07:02:52.332Z,12.57
2022-08-17T07:05:41.641Z,14.10
2022-08-17T07:08:35.365Z,13.32
2022-08-17T07:11:31.847Z,11.65
2022-08-17T07:14:15.198Z,13.07
2022-08-17T07:16:49.359Z,13.93
2022-08-17T07:19:18.481Z,13.98
2022-08-17T07:22:10.942Z,12.30
2022-08-17T07:24:58.488Z,11.93
2022-08-17T07:27:32.693Z,12.40
2022-08-17T07:30:11.281Z,13.63
2022-08-17T07:33:00.493Z,11.73
2022-08-17T07:35:37.814Z,13.32
2022-08-17T07:38:25.165Z,13.07
2022-08-17T07:41:03.096Z,12.70
2022-08-17T07:43:41.987Z,13.38
2022-08-17T07:46:36.689Z,13.25
2022-08-17T07:49:03.731Z,11.68
2022-08-17T07:51:50.560Z,12.25
2022-08-17T07:54:23.706Z,12.00
2022-08-17T07:56:54.948Z,13.77
2022-08-17T08:00:01.581Z,11.82
2022-08-17T08:02:38.352Z,11.38
2022-08-17T08:05:30.009Z,10.98
2022-08-17T08:08:26.693Z,11.38
2022-08-17T08:11:09.707Z,10.48
2022-08-17T08:13:43.852Z,11.93
2022-08-17T08:16:29.426Z,10.57
2022-08-17T08:18:59.922Z,11.20
2022-08-17T08:21:49.236Z,11.35
2022-08-17T08:24:55.540Z,11.60
2022-08-17T08:27:41.663Z,10.82
2022-08-17T08:30:15.626Z,12.05
2022-08-17T08:32:51.362Z,10.70
2022-08-17T08:35:31.557Z,11.38
2022-08-17T08:38:09.607Z,10.68
2022-08-17T08:41:16.219Z,9.05
2022-08-17T08:43:55.198Z,11.32
2022-08-17T08:46:36.459Z,10.43
2022-08-17T08:49:45.039Z,11.48
2022-08-17T08:52:53.427Z,9.98
2022-08-17T08:55:34.678Z,10.50
2022-08-17T08:58:07.579Z,11.75
2022-08-17T09:00:58.869Z,10.32
2022-08-17T09:04:19.909Z,10.57
2022-08-17T09:07:09.437Z,9.95
2022-08-17T09:09:47.065Z,10.73
2022-08-17T09:12:29.457Z,9.02
2022-08-17T09:15:13.340Z,10.25
2022-08-17T09:19:00.906Z,10.77
2022-08-17T09:20:59.003Z,10.98
2022-08-17T09:23:32.719Z,10.52
2022-08-17T09:26:23.611Z,10.02
2022-08-17T09:29:01.733Z,9.30
2022-08-17T09:31:49.709Z,7.70
2022-08-17T09:34:29.572Z,9.13
2022-08-17T09:37:35.744Z,10.32
2022-08-17T09:40:14.567Z,10.23
2022-08-17T09:42:52.738Z,10.63
2022-08-17T09:45:40.959Z,9.15
2022-08-17T09:48:30.499Z,9.50
2022-08-17T09:51:13.858Z,10.00
2022-08-17T09:53:41.532Z,10.30
2022-08-17T09:56:36.046Z,10.65
2022-08-17T09:59:14.035Z,9.65
2022-08-17T10:01:47.057Z,10.32
2022-08-17T10:04:32.727Z,9.10
2022-08-17T10:07:06.585Z,9.15
2022-08-17T10:10:00.933Z,9.13
2022-08-17T10:12:38.556Z,9.55
2022-08-17T10:15:17.482Z,9.25
2022-08-17T10:18:33.288Z,8.52
2022-08-17T10:21:29.860Z,8.18
2022-08-17T10:24:35.889Z,7.88
2022-08-17T10:27:08.196Z,8.05
2022-08-17T10:29:47.388Z,8.32
2022-08-17T10:32:34.131Z,7.80
2022-08-17T10:35:34.492Z,7.80
2022-08-17T10:38:46.264Z,7.93
2022-08-17T10:41:40.417Z,8.63
2022-08-17T10:44:38.307Z,8.80
2022-08-17T10:47:09.213Z,7.82
2022-08-17T10:49:48.804Z,8.40
2022-08-17T10:52:44.509Z,7.93
2022-08-17T10:55:17.884Z,7.75
2022-08-17T10:57:48.062Z,8.25
2022-08-17T11:00:41.031Z,7.85
2022-08-17T11:03:23.125Z,8.77
2022-08-17T11:06:06.368Z,7.75
2022-08-17T11:09:03.960Z,7.70
2022-08-17T11:11:52.787Z,9.18
2022-08-17T11:14:35.913Z,7.72
2022-08-17T11:17:36.389Z,8.68
2022-08-17T11:20:05.520Z,8.18
2022-08-17T11:22:58.137Z,8.02
2022-08-17T11:25:47.784Z,8.25
2022-08-17T11:28:34.664Z,7.65
2022-08-17T11:31:38.837Z,7.57
2022-08-17T11:34:19.041Z,7.22
2022-08-17T11:37:08.567Z,8.20
2022-08-17T11:39:54.419Z,7.43
2022-08-17T11:42:30.853Z,7.03
2022-08-17T11:45:14.010Z,7.43
2022-08-17T11:48:27.660Z,7.03
2022-08-17T11:51:25.042Z,6.63
2022-08-17T11:54:14.616Z,7.15
2022-08-17T11:56:50.000Z,6.95
2022-08-17T11:59:36.100Z,5.82
2022-08-17T12:02:19.819Z,6.93
2022-08-17T12:05:17.853Z,6.78
2022-08-17T12:08:00.698Z,6.05
2022-08-17T12:10:34.678Z,6.28
2022-08-17T12:13:23.806Z,6.13
2022-08-17T12:16:01.307Z,6.72
2022-08-17T12:18:30.062Z,6.47
2022-08-17T12:21:15.864Z,6.57
2022-08-17T12:23:48.052Z,6.80
2022-08-17T12:26:19.502Z,6.32
2022-08-17T12:28:49.383Z,6.35
2022-08-17T12:31:27.470Z,5.93
2022-08-17T12:33:57.266Z,6.25
2022-08-17T12:36:26.334Z,6.95
2022-08-17T12:39:12.959Z,7.03
2022-08-17T12:41:45.240Z,7.22
2022-08-17T12:44:17.259Z,6.57
2022-08-17T12:46:53.206Z,7.72
2022-08-17T12:49:24.162Z,6.45
2022-08-17T12:52:00.361Z,7.60
2022-08-17T12:54:39.199Z,7.03
2022-08-17T12:57:17.738Z,7.43
2022-08-17T12:59:55.346Z,7.50
2022-08-17T13:02:30.754Z,7.03
2022-08-17T13:05:00.802Z,7.93
2022-08-17T13:07:30.174Z,7.53
2022-08-17T13:09:57.134Z,7.38
2022-08-17T13:12:32.979Z,7.60
2022-08-17T13:14:59.986Z,8.57
2022-08-17T13:17:34.993Z,8.05
2022-08-17T13:20:06.018Z,7.30
2022-08-17T13:22:33.085Z,7.10
2022-08-17T13:25:05.594Z,7.63
2022-08-17T13:27:33.966Z,7.93
2022-08-17T13:30:12.381Z,9.48
2022-08-17T13:32:43.747Z,8.40
2022-08-17T13:35:51.855Z,9.02
2022-08-17T13:38:45.777Z,7.55
2022-08-17T13:41:41.059Z,7.78
2022-08-17T13:44:39.749Z,8.88
2022-08-17T13:47:18.432Z,8.15
2022-08-17T13:49:48.874Z,8.07
2022-08-17T13:52:40.415Z,7.07
2022-08-17T13:55:17.988Z,8.00
2022-08-17T13:57:48.348Z,7.35
2022-08-17T14:00:35.528Z,6.68
2022-08-17T14:03:04.680Z,7.78
2022-08-17T14:05:32.380Z,7.65
2022-08-17T14:08:06.608Z,6.95
2022-08-17T14:10:36.990Z,7.05
2022-08-17T14:13:05.388Z,5.80
2022-08-17T14:15:55.602Z,6.30
2022-08-17T14:18:42.052Z,6.43
2022-08-17T14:21:08.512Z,5.47
2022-08-17T14:23:36.870Z,5.80
2022-08-17T14:26:04.721Z,6.57
2022-08-17T14:28:32.462Z,6.70
2022-08-17T14:31:00.847Z,7.22
2022-08-17T14:33:29.050Z,6.13
2022-08-17T14:35:57.635Z,6.50
2022-08-17T14:38:25.331Z,6.15
2022-08-17T14:40:52.454Z,6.95
2022-08-17T14:43:21.017Z,6.50
2022-08-17T14:45:48.008Z,6.45
2022-08-17T14:48:15.189Z,6.78
2022-08-17T14:50:43.920Z,6.50
2022-08-17T14:53:14.380Z,5.80
2022-08-17T14:55:41.360Z,6.38
2022-08-17T14:58:09.268Z,6.90
2022-08-17T15:00:36.984Z,6.30
2022-08-17T15:03:04.937Z,6.75
2022-08-17T15:05:36.956Z,5.95
2022-08-17T15:08:05.705Z,6.10
2022-08-17T15:10:33.657Z,5.93
2022-08-17T15:13:00.932Z,6.05
2022-08-17T15:15:28.456Z,6.35
2022-08-17T15:17:55.604Z,6.38
2022-08-17T15:20:26.606Z,6.50
2022-08-17T15:22:57.560Z,6.63
2022-08-17T15:25:32.498Z,6.40
2022-08-17T15:28:00.573Z,6.28
2022-08-17T15:30:28.335Z,5.90
2022-08-17T15:32:57.773Z,5.63
2022-08-17T15:35:28.742Z,5.95
2022-08-17T15:38:06.111Z,5.65
2022-08-17T15:40:37.416Z,6.65
2022-08-17T15:43:28.005Z,6.63
2022-08-17T15:46:12.460Z,6.35
2022-08-17T15:48:42.219Z,6.25
2022-08-17T15:51:10.568Z,5.72
2022-08-17T15:53:38.822Z,6.25
2022-08-17T15:56:06.543Z,6.22
2022-08-17T15:58:35.286Z,6.80
2022-08-17T16:01:14.996Z,5.63
2022-08-17T16:04:04.704Z,6.22
2022-08-17T16:06:34.870Z,6.28
2022-08-17T16:09:01.988Z,5.55
2022-08-17T16:11:28.975Z,6.35
2022-08-17T16:13:56.217Z,6.05
2022-08-17T16:16:23.827Z,6.40
2022-08-17T16:18:53.566Z,6.70
2022-08-17T16:21:27.692Z,6.57
2022-08-17T16:23:56.559Z,7.13
2022-08-17T16:26:24.292Z,7.05
2022-08-17T16:28:52.407Z,6.03
2022-08-17T16:31:19.904Z,6.32
2022-08-17T16:34:16.163Z,7.00
2022-08-17T16:36:35.558Z,6.18
2022-08-17T16:39:02.421Z,6.28
2022-08-17T16:41:45.389Z,6.40
2022-08-17T16:44:20.595Z,7.88
2022-08-17T16:46:48.604Z,6.55
2022-08-17T16:49:27.617Z,6.93
2022-08-17T16:52:04.081Z,6.90
2022-08-17T16:54:31.018Z,7.40
2022-08-17T16:56:58.232Z,7.35
2022-08-17T16:59:31.670Z,6.28
2022-08-17T17:02:11.354Z,6.88
2022-08-17T17:04:45.936Z,6.60
2022-08-17T17:07:12.767Z,7.15
2022-08-17T17:09:40.034Z,6.28
2022-08-17T17:12:18.358Z,6.03
2022-08-17T17:14:47.923Z,7.22
2022-08-17T17:17:30.000Z,5.97
2022-08-17T17:20:21.976Z,5.70
2022-08-17T17:23:07.024Z,5.60
2022-08-17T17:26:09.245Z,5.53
2022-08-17T17:29:02.817Z,6.40
2022-08-17T17:31:38.221Z,5.10
2022-08-17T17:34:11.318Z,6.75
2022-08-17T17:36:47.197Z,5.40
2022-08-17T17:39:34.481Z,5.30
2022-08-17T17:42:07.833Z,5.45
2022-08-17T17:44:39.966Z,5.43
2022-08-17T17:47:07.708Z,5.60
2022-08-17T17:49:38.272Z,6.07
2022-08-17T17:52:19.102Z,5.75
2022-08-17T17:54:49.416Z,5.85
2022-08-17T17:57:29.227Z,5.35
2022-08-17T18:00:09.998Z,5.65
2022-08-17T18:03:28.484Z,7.05
2022-08-17T18:06:09.854Z,5.32
2022-08-17T18:08:59.755Z,6.70
2022-08-17T18:12:19.843Z,6.80
2022-08-17T18:15:07.674Z,7.57
2022-08-17T18:17:36.291Z,7.28
2022-08-17T18:20:05.067Z,7.43
2022-08-17T18:22:32.279Z,8.45
2022-08-17T18:24:59.353Z,8.10
2022-08-17T18:27:33.928Z,7.57
2022-08-17T18:30:22.256Z,7.95
2022-08-17T18:32:49.797Z,9.05
2022-08-17T18:35:19.724Z,9.18
2022-08-17T18:37:53.059Z,9.27
2022-08-17T18:40:20.093Z,8.77
2022-08-17T18:43:13.786Z,11.10
2022-08-17T18:45:55.491Z,9.37
2022-08-17T18:48:32.993Z,10.60
2022-08-17T18:51:43.779Z,10.55
2022-08-17T18:54:20.786Z,11.13
2022-08-17T18:56:54.573Z,10.45
2022-08-17T18:59:28.024Z,10.55
2022-08-17T19:02:05.165Z,10.35
2022-08-17T19:04:59.707Z,11.38
2022-08-17T19:07:30.746Z,9.88
2022-08-17T19:10:08.892Z,10.40
2022-08-17T19:12:52.531Z,10.93
2022-08-17T19:15:35.877Z,9.60
2022-08-17T19:18:15.289Z,10.77
2022-08-17T19:20:59.474Z,10.47
2022-08-17T19:24:11.999Z,9.20
2022-08-17T19:26:53.374Z,11.50
2022-08-17T19:29:40.774Z,11.37
2022-08-17T19:32:09.653Z,10.57
2022-08-17T19:34:39.138Z,11.73
2022-08-17T19:37:17.281Z,10.20
2022-08-17T19:39:51.326Z,11.10
2022-08-17T19:42:42.640Z,10.67
2022-08-17T19:45:36.081Z,12.43
2022-08-17T19:48:21.951Z,11.43
2022-08-17T19:51:05.323Z,11.60
2022-08-17T19:54:06.039Z,11.20
2022-08-17T19:56:54.625Z,11.50
2022-08-17T19:59:51.623Z,11.43
2022-08-17T20:02:45.816Z,11.13
2022-08-17T20:06:11.432Z,11.27
2022-08-17T20:08:49.090Z,12.23
2022-08-17T20:11:24.995Z,11.93
2022-08-17T20:14:15.592Z,10.73
2022-08-17T20:16:42.754Z,12.10
2022-08-17T20:19:27.762Z,10.80
2022-08-17T20:22:10.313Z,11.47
2022-08-17T20:24:55.525Z,11.33
2022-08-17T20:27:47.045Z,10.83
2022-08-17T20:30:33.488Z,12.20
2022-08-17T20:33:02.519Z,10.77
2022-08-17T20:35:34.009Z,11.40
2022-08-17T20:38:13.472Z,11.00
2022-08-17T20:41:01.178Z,11.33
2022-08-17T20:43:34.555Z,10.07
2022-08-17T20:46:26.848Z,12.77
2022-08-17T20:48:58.722Z,13.10
2022-08-17T20:51:31.561Z,12.37
2022-08-17T20:54:06.784Z,13.20
2022-08-17T20:56:46.538Z,11.37
2022-08-17T20:59:24.207Z,13.30
2022-08-17T21:02:08.883Z,11.70
2022-08-17T21:05:25.163Z,12.17
2022-08-17T21:07:58.699Z,12.83
2022-08-17T21:10:25.858Z,12.83
2022-08-17T21:13:06.326Z,11.63
2022-08-17T21:15:42.545Z,11.97
2022-08-17T21:18:38.681Z,12.60
2022-08-17T21:21:26.106Z,12.53
2022-08-17T21:24:30.349Z,12.37
2022-08-17T21:27:03.327Z,12.60
2022-08-17T21:29:33.973Z,11.23
2022-08-17T21:32:03.792Z,11.17
2022-08-17T21:34:42.788Z,11.53
2022-08-17T21:37:29.644Z,12.43
2022-08-17T21:40:01.939Z,11.03
2022-08-17T21:42:32.724Z,10.67
2022-08-17T21:45:18.038Z,12.43
2022-08-17T21:47:50.311Z,10.93
2022-08-17T21:50:25.287Z,11.57
2022-08-17T21:52:54.767Z,11.77
2022-08-17T21:55:28.357Z,11.07
2022-08-17T21:58:13.758Z,11.23
2022-08-17T22:00:41.553Z,11.15
2022-08-17T22:03:28.759Z,10.73
2022-08-17T22:05:55.846Z,11.27
2022-08-17T22:08:25.319Z,10.40
2022-08-17T22:11:01.242Z,10.50
2022-08-17T22:13:29.367Z,10.85
2022-08-17T22:16:29.518Z,9.90
2022-08-17T22:18:58.344Z,13.20
2022-08-17T22:21:26.235Z,9.97
2022-08-17T22:24:06.143Z,9.70
2022-08-17T22:27:07.090Z,10.53
2022-08-17T22:29:57.287Z,10.30
2022-08-17T22:32:41.764Z,9.23
2022-08-17T22:35:32.733Z,9.00
2022-08-17T22:38:20.408Z,9.30
2022-08-17T22:40:53.890Z,10.33
2022-08-17T22:43:28.615Z,10.13
2022-08-17T22:45:59.639Z,9.60
2022-08-17T22:48:29.424Z,9.90
2022-08-17T22:51:14.504Z,10.47
2022-08-17T22:54:18.020Z,7.63
2022-08-17T22:57:19.918Z,8.63
2022-08-17T22:59:55.930Z,9.53
2022-08-17T23:02:26.982Z,7.83
2022-08-17T23:05:14.373Z,8.53
2022-08-17T23:07:42.493Z,9.60
2022-08-17T23:10:11.694Z,8.13
2022-08-17T23:12:39.815Z,7.83
2022-08-17T23:15:16.397Z,8.50
2022-08-17T23:17:44.522Z,9.10
2022-08-17T23:20:15.502Z,8.60
2022-08-17T23:22:51.265Z,8.30
2022-08-17T23:25:27.135Z,8.10
2022-08-17T23:27:54.638Z,8.60
2022-08-17T23:30:25.716Z,9.40
2022-08-17T23:32:54.269Z,8.67
2022-08-17T23:35:39.721Z,8.90
2022-08-17T23:38:12.051Z,8.97
2022-08-17T23:40:40.380Z,10.10
2022-08-17T23:43:24.470Z,8.87
2022-08-17T23:45:58.694Z,10.93
2022-08-17T23:48:32.444Z,11.13
2022-08-17T23:51:16.043Z,9.87
2022-08-17T23:53:58.308Z,10.03
2022-08-17T23:56:28.057Z,9.17
2022-08-17T23:58:55.756Z,9.40
